KFRI/FRI METAR and TAF weather

Enter ICAO airport designator
Station Type Date Time Source
KFRI METAR 2019/08/25 17:56 UTC NOAA

KFRI 251756Z AUTO 24005KT 10SM OVC026 23/18 A2987 RMK AO2 SLP107 60002 T02310182 10232 20190 58004


Station Type Date Time Source
KFRI Decoded METAR 2019/08/25 17:56 UTC NOAA

Station name not available
Aug 25, 2019 - 01:56 PM EDT / 2019.08.25 1756 UTC
Wind: from the WSW (240 degrees) at 6 MPH (5 KT):0
Visibility: 10 mile(s):0
Sky conditions: overcast
Temperature: 73.6 F (23.1 C)
Dew Point: 64.8 F (18.2 C)
Relative Humidity: 73%
Pressure (altimeter): 29.87 in. Hg (1011 hPa)
Pressure tendency: 0.01 inches (0.4 hPa) lower than three hours ago
ob: KFRI 251756Z AUTO 24005KT 10SM OVC026 23/18 A2987 RMK AO2 SLP107 60002 T02310182 10232 20190 58004
cycle: 18

Station Type Date Time Source
KFRI TAF 2019/08/23 18:12 UTC NOAA

TAF
AMD KFRI 231805Z 2318/2419 10008KT 9999 BKN030 QNH2995INS
BECMG 2320/2321 10012G18KT 9999 FEW050 QNH2994INS
BECMG 2323/2324 10009KT 9999 SCT050 QNH3003INS
BECMG 2405/2406 11006KT 9999 BKN020 QNH3002INS
BECMG 2411/2412 10006KT 9999 BKN010 QNH3004INS
BECMG 2413/2414 09006KT 9999 FEW020 QNH3006INS TX28/2321Z TN21/2413Z LAST NO
AMDS AFT 2321 NEXT 2605

Example: see airport list